sensor_id;sensor_type;location;lat;lon;timestamp;P1;durP1;ratioP1;P2;durP2;ratioP2
78489;SDS011;67776;52.012;4.736;2023-06-14T00:01:38;7.77;;;4.17;;
78489;SDS011;67776;52.012;4.736;2023-06-14T00:04:03;9.00;;;4.67;;
78489;SDS011;67776;52.012;4.736;2023-06-14T00:06:30;8.75;;;4.50;;
78489;SDS011;67776;52.012;4.736;2023-06-14T00:08:56;10.33;;;4.23;;
78489;SDS011;67776;52.012;4.736;2023-06-14T00:11:21;9.47;;;4.77;;
78489;SDS011;67776;52.012;4.736;2023-06-14T00:13:46;7.73;;;4.20;;
78489;SDS011;67776;52.012;4.736;2023-06-14T00:16:12;8.50;;;4.50;;
78489;SDS011;67776;52.012;4.736;2023-06-14T00:18:38;7.73;;;4.33;;
78489;SDS011;67776;52.012;4.736;2023-06-14T00:21:03;8.38;;;4.43;;
78489;SDS011;67776;52.012;4.736;2023-06-14T00:23:29;8.20;;;4.18;;
78489;SDS011;67776;52.012;4.736;2023-06-14T00:25:55;8.33;;;4.90;;
78489;SDS011;67776;52.012;4.736;2023-06-14T00:28:20;9.30;;;4.50;;
78489;SDS011;67776;52.012;4.736;2023-06-14T00:30:46;8.65;;;4.25;;
78489;SDS011;67776;52.012;4.736;2023-06-14T00:33:11;9.13;;;4.30;;
78489;SDS011;67776;52.012;4.736;2023-06-14T00:35:37;9.75;;;4.68;;
78489;SDS011;67776;52.012;4.736;2023-06-14T00:38:03;7.53;;;4.53;;
78489;SDS011;67776;52.012;4.736;2023-06-14T00:40:28;9.23;;;4.50;;
78489;SDS011;67776;52.012;4.736;2023-06-14T00:42:54;7.90;;;4.23;;
78489;SDS011;67776;52.012;4.736;2023-06-14T00:45:19;9.73;;;4.70;;
78489;SDS011;67776;52.012;4.736;2023-06-14T00:47:45;7.75;;;4.53;;
78489;SDS011;67776;52.012;4.736;2023-06-14T00:50:11;10.00;;;4.70;;
78489;SDS011;67776;52.012;4.736;2023-06-14T00:52:38;9.37;;;4.20;;
78489;SDS011;67776;52.012;4.736;2023-06-14T00:55:04;9.80;;;4.55;;
78489;SDS011;67776;52.012;4.736;2023-06-14T00:57:29;8.95;;;4.40;;
78489;SDS011;67776;52.012;4.736;2023-06-14T00:59:55;8.43;;;4.47;;
78489;SDS011;67776;52.012;4.736;2023-06-14T01:02:20;8.30;;;4.60;;
78489;SDS011;67776;52.012;4.736;2023-06-14T01:04:47;9.73;;;4.80;;
78489;SDS011;67776;52.012;4.736;2023-06-14T01:15:45;8.32;;;4.60;;
78489;SDS011;67776;52.012;4.736;2023-06-14T01:18:12;9.43;;;4.40;;
78489;SDS011;67776;52.012;4.736;2023-06-14T01:20:42;12.13;;;5.60;;
78489;SDS011;67776;52.012;4.736;2023-06-14T01:23:09;9.27;;;4.50;;
78489;SDS011;67776;52.012;4.736;2023-06-14T01:25:37;9.43;;;4.38;;
78489;SDS011;67776;52.012;4.736;2023-06-14T01:28:04;9.50;;;4.57;;
78489;SDS011;67776;52.012;4.736;2023-06-14T01:30:37;7.87;;;3.90;;
78489;SDS011;67776;52.012;4.736;2023-06-14T01:33:04;8.80;;;4.32;;
78489;SDS011;67776;52.012;4.736;2023-06-14T01:35:30;10.10;;;4.35;;
78489;SDS011;67776;52.012;4.736;2023-06-14T01:37:55;8.90;;;4.33;;
78489;SDS011;67776;52.012;4.736;2023-06-14T01:40:21;7.97;;;4.20;;
78489;SDS011;67776;52.012;4.736;2023-06-14T01:42:47;8.30;;;4.22;;
78489;SDS011;67776;52.012;4.736;2023-06-14T01:45:14;6.85;;;3.90;;
78489;SDS011;67776;52.012;4.736;2023-06-14T01:47:41;9.20;;;4.30;;
78489;SDS011;67776;52.012;4.736;2023-06-14T01:50:07;8.95;;;5.00;;
78489;SDS011;67776;52.012;4.736;2023-06-14T01:52:32;7.63;;;4.40;;
78489;SDS011;67776;52.012;4.736;2023-06-14T01:54:58;8.30;;;4.20;;
78489;SDS011;67776;52.012;4.736;2023-06-14T01:57:23;9.10;;;4.63;;
78489;SDS011;67776;52.012;4.736;2023-06-14T01:59:51;10.15;;;4.43;;
78489;SDS011;67776;52.012;4.736;2023-06-14T02:02:17;7.13;;;4.30;;
78489;SDS011;67776;52.012;4.736;2023-06-14T02:04:43;9.75;;;4.20;;
78489;SDS011;67776;52.012;4.736;2023-06-14T02:07:08;10.03;;;4.43;;
78489;SDS011;67776;52.012;4.736;2023-06-14T02:09:34;9.03;;;3.80;;
78489;SDS011;67776;52.012;4.736;2023-06-14T02:12:00;9.75;;;4.57;;
78489;SDS011;67776;52.012;4.736;2023-06-14T02:14:25;7.17;;;4.00;;
78489;SDS011;67776;52.012;4.736;2023-06-14T02:16:51;8.55;;;4.00;;
78489;SDS011;67776;52.012;4.736;2023-06-14T02:19:18;7.35;;;4.28;;
78489;SDS011;67776;52.012;4.736;2023-06-14T02:21:44;9.67;;;4.10;;
78489;SDS011;67776;52.012;4.736;2023-06-14T02:24:10;10.02;;;4.25;;
78489;SDS011;67776;52.012;4.736;2023-06-14T02:26:36;8.55;;;4.53;;
78489;SDS011;67776;52.012;4.736;2023-06-14T02:29:06;8.83;;;4.10;;
78489;SDS011;67776;52.012;4.736;2023-06-14T02:31:35;6.90;;;3.90;;
78489;SDS011;67776;52.012;4.736;2023-06-14T02:34:00;9.75;;;4.20;;
78489;SDS011;67776;52.012;4.736;2023-06-14T02:36:26;7.87;;;4.17;;
78489;SDS011;67776;52.012;4.736;2023-06-14T02:38:52;9.80;;;4.30;;
78489;SDS011;67776;52.012;4.736;2023-06-14T02:41:19;9.77;;;4.50;;
78489;SDS011;67776;52.012;4.736;2023-06-14T02:43:44;12.27;;;4.50;;
78489;SDS011;67776;52.012;4.736;2023-06-14T02:46:09;7.07;;;4.03;;
78489;SDS011;67776;52.012;4.736;2023-06-14T02:48:36;7.17;;;3.97;;
78489;SDS011;67776;52.012;4.736;2023-06-14T02:51:01;9.40;;;4.00;;
78489;SDS011;67776;52.012;4.736;2023-06-14T02:53:27;7.57;;;3.93;;
78489;SDS011;67776;52.012;4.736;2023-06-14T02:55:52;9.37;;;4.43;;
78489;SDS011;67776;52.012;4.736;2023-06-14T02:58:17;7.97;;;3.97;;
78489;SDS011;67776;52.012;4.736;2023-06-14T03:00:43;7.60;;;3.90;;
78489;SDS011;67776;52.012;4.736;2023-06-14T03:03:09;8.33;;;4.10;;
78489;SDS011;67776;52.012;4.736;2023-06-14T03:05:40;8.98;;;4.10;;
78489;SDS011;67776;52.012;4.736;2023-06-14T03:08:11;9.77;;;3.95;;
78489;SDS011;67776;52.012;4.736;2023-06-14T03:10:41;9.68;;;4.35;;
78489;SDS011;67776;52.012;4.736;2023-06-14T03:13:11;12.13;;;4.30;;
78489;SDS011;67776;52.012;4.736;2023-06-14T03:15:37;8.68;;;4.20;;
78489;SDS011;67776;52.012;4.736;2023-06-14T03:18:03;8.20;;;4.40;;
78489;SDS011;67776;52.012;4.736;2023-06-14T03:20:29;10.30;;;4.60;;
78489;SDS011;67776;52.012;4.736;2023-06-14T03:22:57;9.45;;;4.18;;
78489;SDS011;67776;52.012;4.736;2023-06-14T03:25:27;7.65;;;4.28;;
78489;SDS011;67776;52.012;4.736;2023-06-14T03:27:54;11.20;;;4.38;;
78489;SDS011;67776;52.012;4.736;2023-06-14T03:30:22;11.97;;;4.57;;
78489;SDS011;67776;52.012;4.736;2023-06-14T03:32:47;9.57;;;4.28;;
78489;SDS011;67776;52.012;4.736;2023-06-14T03:35:13;8.90;;;4.23;;
78489;SDS011;67776;52.012;4.736;2023-06-14T03:37:45;9.50;;;4.10;;
78489;SDS011;67776;52.012;4.736;2023-06-14T03:40:12;8.90;;;4.37;;
78489;SDS011;67776;52.012;4.736;2023-06-14T03:42:38;10.68;;;4.45;;
78489;SDS011;67776;52.012;4.736;2023-06-14T03:45:04;12.15;;;4.78;;
78489;SDS011;67776;52.012;4.736;2023-06-14T03:47:30;8.00;;;4.40;;
78489;SDS011;67776;52.012;4.736;2023-06-14T03:49:55;10.50;;;4.18;;
78489;SDS011;67776;52.012;4.736;2023-06-14T03:52:21;7.93;;;4.33;;
78489;SDS011;67776;52.012;4.736;2023-06-14T03:54:47;12.03;;;4.43;;
78489;SDS011;67776;52.012;4.736;2023-06-14T03:57:12;7.13;;;4.05;;
78489;SDS011;67776;52.012;4.736;2023-06-14T03:59:38;7.37;;;4.30;;
78489;SDS011;67776;52.012;4.736;2023-06-14T04:02:03;10.00;;;4.57;;
78489;SDS011;67776;52.012;4.736;2023-06-14T04:04:29;12.73;;;4.20;;
78489;SDS011;67776;52.012;4.736;2023-06-14T04:06:55;9.93;;;4.63;;
78489;SDS011;67776;52.012;4.736;2023-06-14T04:09:21;9.27;;;4.50;;
78489;SDS011;67776;52.012;4.736;2023-06-14T04:11:47;7.70;;;4.22;;
78489;SDS011;67776;52.012;4.736;2023-06-14T04:14:13;9.37;;;3.93;;
78489;SDS011;67776;52.012;4.736;2023-06-14T04:16:38;11.87;;;4.33;;
78489;SDS011;67776;52.012;4.736;2023-06-14T04:19:03;11.07;;;4.47;;
78489;SDS011;67776;52.012;4.736;2023-06-14T04:21:29;9.20;;;4.47;;
78489;SDS011;67776;52.012;4.736;2023-06-14T04:23:54;8.70;;;4.30;;
78489;SDS011;67776;52.012;4.736;2023-06-14T04:26:20;7.90;;;4.55;;
78489;SDS011;67776;52.012;4.736;2023-06-14T04:28:48;8.50;;;3.93;;
78489;SDS011;67776;52.012;4.736;2023-06-14T04:31:14;10.40;;;4.15;;
78489;SDS011;67776;52.012;4.736;2023-06-14T04:33:41;8.98;;;4.45;;
78489;SDS011;67776;52.012;4.736;2023-06-14T04:36:11;10.38;;;4.10;;
78489;SDS011;67776;52.012;4.736;2023-06-14T04:38:38;9.43;;;4.60;;
78489;SDS011;67776;52.012;4.736;2023-06-14T04:41:03;7.73;;;4.10;;
78489;SDS011;67776;52.012;4.736;2023-06-14T04:43:28;8.80;;;4.10;;
78489;SDS011;67776;52.012;4.736;2023-06-14T04:45:54;9.53;;;4.33;;
78489;SDS011;67776;52.012;4.736;2023-06-14T04:48:21;8.82;;;4.32;;
78489;SDS011;67776;52.012;4.736;2023-06-14T04:50:47;7.63;;;4.00;;
78489;SDS011;67776;52.012;4.736;2023-06-14T04:53:13;11.70;;;4.33;;
78489;SDS011;67776;52.012;4.736;2023-06-14T04:55:38;7.93;;;4.22;;
78489;SDS011;67776;52.012;4.736;2023-06-14T04:58:04;7.87;;;4.10;;
78489;SDS011;67776;52.012;4.736;2023-06-14T05:00:29;7.70;;;4.20;;
78489;SDS011;67776;52.012;4.736;2023-06-14T05:02:55;9.40;;;4.20;;
78489;SDS011;67776;52.012;4.736;2023-06-14T05:05:21;9.00;;;4.30;;
78489;SDS011;67776;52.012;4.736;2023-06-14T05:07:47;7.80;;;4.07;;
78489;SDS011;67776;52.012;4.736;2023-06-14T05:10:12;7.55;;;4.10;;
78489;SDS011;67776;52.012;4.736;2023-06-14T05:12:38;7.67;;;4.53;;
78489;SDS011;67776;52.012;4.736;2023-06-14T05:15:03;11.40;;;4.30;;
78489;SDS011;67776;52.012;4.736;2023-06-14T05:17:29;10.00;;;4.07;;
78489;SDS011;67776;52.012;4.736;2023-06-14T05:19:55;8.00;;;3.93;;
78489;SDS011;67776;52.012;4.736;2023-06-14T05:22:23;8.93;;;4.13;;
78489;SDS011;67776;52.012;4.736;2023-06-14T05:24:48;11.47;;;4.40;;
78489;SDS011;67776;52.012;4.736;2023-06-14T05:27:13;7.90;;;3.87;;
78489;SDS011;67776;52.012;4.736;2023-06-14T05:29:39;8.33;;;4.10;;
78489;SDS011;67776;52.012;4.736;2023-06-14T05:32:05;7.68;;;4.35;;
78489;SDS011;67776;52.012;4.736;2023-06-14T05:34:30;8.67;;;4.50;;
78489;SDS011;67776;52.012;4.736;2023-06-14T05:36:56;9.90;;;4.20;;
78489;SDS011;67776;52.012;4.736;2023-06-14T05:39:21;9.60;;;3.83;;
78489;SDS011;67776;52.012;4.736;2023-06-14T05:41:47;8.90;;;3.63;;
78489;SDS011;67776;52.012;4.736;2023-06-14T05:44:12;7.73;;;4.20;;
78489;SDS011;67776;52.012;4.736;2023-06-14T05:46:37;8.10;;;4.53;;
78489;SDS011;67776;52.012;4.736;2023-06-14T05:49:05;7.50;;;4.10;;
78489;SDS011;67776;52.012;4.736;2023-06-14T05:51:30;9.00;;;4.20;;
78489;SDS011;67776;52.012;4.736;2023-06-14T05:53:55;7.80;;;4.10;;
78489;SDS011;67776;52.012;4.736;2023-06-14T05:56:21;8.53;;;3.87;;
78489;SDS011;67776;52.012;4.736;2023-06-14T05:58:46;9.93;;;4.40;;
78489;SDS011;67776;52.012;4.736;2023-06-14T06:01:13;8.95;;;4.43;;
78489;SDS011;67776;52.012;4.736;2023-06-14T06:03:38;11.57;;;4.45;;
78489;SDS011;67776;52.012;4.736;2023-06-14T06:06:04;8.90;;;4.33;;
78489;SDS011;67776;52.012;4.736;2023-06-14T06:08:29;8.87;;;4.10;;
78489;SDS011;67776;52.012;4.736;2023-06-14T06:10:56;8.38;;;4.25;;
78489;SDS011;67776;52.012;4.736;2023-06-14T06:13:21;9.95;;;4.78;;
78489;SDS011;67776;52.012;4.736;2023-06-14T06:15:47;7.63;;;4.10;;
78489;SDS011;67776;52.012;4.736;2023-06-14T06:18:12;10.77;;;4.30;;
78489;SDS011;67776;52.012;4.736;2023-06-14T06:20:38;8.67;;;4.50;;
78489;SDS011;67776;52.012;4.736;2023-06-14T06:23:03;8.27;;;4.50;;
78489;SDS011;67776;52.012;4.736;2023-06-14T06:25:28;8.07;;;4.15;;
78489;SDS011;67776;52.012;4.736;2023-06-14T06:27:54;10.23;;;4.30;;
78489;SDS011;67776;52.012;4.736;2023-06-14T06:30:21;9.67;;;3.83;;
78489;SDS011;67776;52.012;4.736;2023-06-14T06:32:47;9.73;;;4.05;;
78489;SDS011;67776;52.012;4.736;2023-06-14T06:35:12;9.17;;;4.20;;
78489;SDS011;67776;52.012;4.736;2023-06-14T06:37:38;7.63;;;3.90;;
78489;SDS011;67776;52.012;4.736;2023-06-14T06:40:04;9.07;;;3.95;;
78489;SDS011;67776;52.012;4.736;2023-06-14T06:42:31;7.18;;;3.97;;
78489;SDS011;67776;52.012;4.736;2023-06-14T06:44:57;9.65;;;4.72;;
78489;SDS011;67776;52.012;4.736;2023-06-14T06:47:22;8.87;;;4.40;;
78489;SDS011;67776;52.012;4.736;2023-06-14T06:49:47;9.70;;;4.37;;
78489;SDS011;67776;52.012;4.736;2023-06-14T06:52:13;9.03;;;4.20;;
78489;SDS011;67776;52.012;4.736;2023-06-14T06:54:38;7.50;;;4.30;;
78489;SDS011;67776;52.012;4.736;2023-06-14T06:57:04;7.37;;;3.90;;
78489;SDS011;67776;52.012;4.736;2023-06-14T06:59:30;9.00;;;5.10;;
78489;SDS011;67776;52.012;4.736;2023-06-14T07:01:56;9.23;;;3.87;;
78489;SDS011;67776;52.012;4.736;2023-06-14T07:04:21;8.97;;;4.30;;
78489;SDS011;67776;52.012;4.736;2023-06-14T07:06:47;8.37;;;4.23;;
78489;SDS011;67776;52.012;4.736;2023-06-14T07:09:12;8.80;;;4.13;;
78489;SDS011;67776;52.012;4.736;2023-06-14T07:11:40;10.43;;;4.30;;
78489;SDS011;67776;52.012;4.736;2023-06-14T07:14:05;7.32;;;4.40;;
78489;SDS011;67776;52.012;4.736;2023-06-14T07:16:31;8.10;;;4.27;;
78489;SDS011;67776;52.012;4.736;2023-06-14T07:18:57;9.38;;;4.63;;
78489;SDS011;67776;52.012;4.736;2023-06-14T07:21:22;7.97;;;3.97;;
78489;SDS011;67776;52.012;4.736;2023-06-14T07:23:47;9.57;;;4.27;;
78489;SDS011;67776;52.012;4.736;2023-06-14T07:26:13;8.27;;;4.20;;
78489;SDS011;67776;52.012;4.736;2023-06-14T07:28:38;8.27;;;4.27;;
78489;SDS011;67776;52.012;4.736;2023-06-14T07:31:03;9.13;;;4.30;;
78489;SDS011;67776;52.012;4.736;2023-06-14T07:33:29;7.07;;;4.60;;
78489;SDS011;67776;52.012;4.736;2023-06-14T07:35:54;9.00;;;4.30;;
78489;SDS011;67776;52.012;4.736;2023-06-14T07:38:20;8.50;;;4.80;;
78489;SDS011;67776;52.012;4.736;2023-06-14T07:40:45;8.40;;;4.70;;
78489;SDS011;67776;52.012;4.736;2023-06-14T07:43:10;8.63;;;4.60;;
78489;SDS011;67776;52.012;4.736;2023-06-14T07:45:36;10.37;;;4.73;;
78489;SDS011;67776;52.012;4.736;2023-06-14T07:48:02;7.63;;;4.90;;
78489;SDS011;67776;52.012;4.736;2023-06-14T07:50:27;10.20;;;4.40;;
78489;SDS011;67776;52.012;4.736;2023-06-14T07:52:53;11.95;;;4.60;;
78489;SDS011;67776;52.012;4.736;2023-06-14T07:55:19;9.60;;;4.50;;
78489;SDS011;67776;52.012;4.736;2023-06-14T07:57:44;8.93;;;4.30;;
78489;SDS011;67776;52.012;4.736;2023-06-14T08:00:09;10.37;;;4.80;;
78489;SDS011;67776;52.012;4.736;2023-06-14T08:02:40;8.50;;;4.63;;
78489;SDS011;67776;52.012;4.736;2023-06-14T08:05:05;11.23;;;4.60;;
78489;SDS011;67776;52.012;4.736;2023-06-14T08:07:31;9.02;;;4.50;;
78489;SDS011;67776;52.012;4.736;2023-06-14T08:09:56;7.67;;;4.40;;
78489;SDS011;67776;52.012;4.736;2023-06-14T08:12:21;10.00;;;4.43;;
78489;SDS011;67776;52.012;4.736;2023-06-14T08:14:47;10.63;;;4.70;;
78489;SDS011;67776;52.012;4.736;2023-06-14T08:17:12;10.32;;;4.90;;
78489;SDS011;67776;52.012;4.736;2023-06-14T08:19:38;10.77;;;4.33;;
78489;SDS011;67776;52.012;4.736;2023-06-14T08:22:03;8.83;;;4.50;;
78489;SDS011;67776;52.012;4.736;2023-06-14T08:24:28;10.33;;;4.30;;
78489;SDS011;67776;52.012;4.736;2023-06-14T08:26:54;7.10;;;4.07;;
78489;SDS011;67776;52.012;4.736;2023-06-14T08:29:19;8.05;;;4.53;;
78489;SDS011;67776;52.012;4.736;2023-06-14T08:31:45;8.33;;;4.10;;
78489;SDS011;67776;52.012;4.736;2023-06-14T08:34:11;8.00;;;4.47;;
78489;SDS011;67776;52.012;4.736;2023-06-14T08:36:37;8.33;;;4.50;;
78489;SDS011;67776;52.012;4.736;2023-06-14T08:39:02;11.07;;;4.50;;
78489;SDS011;67776;52.012;4.736;2023-06-14T08:41:27;9.30;;;4.67;;
78489;SDS011;67776;52.012;4.736;2023-06-14T08:43:54;8.77;;;4.30;;
78489;SDS011;67776;52.012;4.736;2023-06-14T08:46:20;8.93;;;4.50;;
78489;SDS011;67776;52.012;4.736;2023-06-14T08:48:47;9.70;;;5.13;;
78489;SDS011;67776;52.012;4.736;2023-06-14T08:51:15;9.63;;;4.45;;
78489;SDS011;67776;52.012;4.736;2023-06-14T08:53:49;9.20;;;4.47;;
78489;SDS011;67776;52.012;4.736;2023-06-14T08:56:17;9.18;;;4.40;;
78489;SDS011;67776;52.012;4.736;2023-06-14T08:58:43;17.73;;;4.77;;
78489;SDS011;67776;52.012;4.736;2023-06-14T09:01:10;10.52;;;4.20;;
78489;SDS011;67776;52.012;4.736;2023-06-14T09:03:39;8.65;;;4.22;;
78489;SDS011;67776;52.012;4.736;2023-06-14T09:06:08;9.55;;;4.10;;
78489;SDS011;67776;52.012;4.736;2023-06-14T09:08:40;10.85;;;4.10;;
78489;SDS011;67776;52.012;4.736;2023-06-14T09:11:12;7.97;;;4.20;;
78489;SDS011;67776;52.012;4.736;2023-06-14T09:13:39;9.88;;;3.90;;
78489;SDS011;67776;52.012;4.736;2023-06-14T09:16:08;7.50;;;3.88;;
78489;SDS011;67776;52.012;4.736;2023-06-14T09:18:37;8.13;;;4.13;;
78489;SDS011;67776;52.012;4.736;2023-06-14T09:21:07;9.48;;;3.90;;
78489;SDS011;67776;52.012;4.736;2023-06-14T09:23:35;6.83;;;3.83;;
78489;SDS011;67776;52.012;4.736;2023-06-14T09:26:06;7.65;;;3.80;;
78489;SDS011;67776;52.012;4.736;2023-06-14T09:28:42;6.68;;;3.90;;
78489;SDS011;67776;52.012;4.736;2023-06-14T09:31:12;9.13;;;4.22;;
78489;SDS011;67776;52.012;4.736;2023-06-14T09:33:42;7.00;;;3.95;;
78489;SDS011;67776;52.012;4.736;2023-06-14T09:36:13;7.27;;;3.80;;
78489;SDS011;67776;52.012;4.736;2023-06-14T09:38:41;6.60;;;4.20;;
78489;SDS011;67776;52.012;4.736;2023-06-14T09:41:07;7.80;;;3.90;;
78489;SDS011;67776;52.012;4.736;2023-06-14T09:43:32;8.03;;;3.80;;
78489;SDS011;67776;52.012;4.736;2023-06-14T09:45:59;6.55;;;3.50;;
78489;SDS011;67776;52.012;4.736;2023-06-14T09:48:25;7.20;;;3.83;;
78489;SDS011;67776;52.012;4.736;2023-06-14T09:50:51;6.20;;;3.50;;
78489;SDS011;67776;52.012;4.736;2023-06-14T09:53:19;5.40;;;3.30;;
78489;SDS011;67776;52.012;4.736;2023-06-14T09:55:47;6.35;;;3.70;;
78489;SDS011;67776;52.012;4.736;2023-06-14T09:58:15;6.10;;;3.65;;
78489;SDS011;67776;52.012;4.736;2023-06-14T10:00:42;6.18;;;3.42;;
78489;SDS011;67776;52.012;4.736;2023-06-14T10:03:16;6.53;;;3.50;;
78489;SDS011;67776;52.012;4.736;2023-06-14T10:05:50;6.68;;;3.40;;
78489;SDS011;67776;52.012;4.736;2023-06-14T10:08:17;7.20;;;3.45;;
78489;SDS011;67776;52.012;4.736;2023-06-14T10:10:44;6.40;;;3.37;;
78489;SDS011;67776;52.012;4.736;2023-06-14T10:13:10;5.53;;;3.40;;
78489;SDS011;67776;52.012;4.736;2023-06-14T10:18:26;6.67;;;3.30;;
78489;SDS011;67776;52.012;4.736;2023-06-14T10:21:05;5.53;;;3.50;;
78489;SDS011;67776;52.012;4.736;2023-06-14T10:23:40;6.47;;;3.20;;
78489;SDS011;67776;52.012;4.736;2023-06-14T10:26:07;6.15;;;3.35;;
78489;SDS011;67776;52.012;4.736;2023-06-14T10:28:33;6.63;;;3.30;;
78489;SDS011;67776;52.012;4.736;2023-06-14T10:33:35;6.30;;;3.33;;
78489;SDS011;67776;52.012;4.736;2023-06-14T10:36:23;6.50;;;3.20;;
78489;SDS011;67776;52.012;4.736;2023-06-14T10:41:28;5.68;;;3.10;;
78489;SDS011;67776;52.012;4.736;2023-06-14T10:46:38;6.15;;;3.15;;
78489;SDS011;67776;52.012;4.736;2023-06-14T10:49:05;6.05;;;3.20;;
78489;SDS011;67776;52.012;4.736;2023-06-14T10:51:41;5.57;;;2.93;;
78489;SDS011;67776;52.012;4.736;2023-06-14T10:54:13;5.50;;;3.00;;
78489;SDS011;67776;52.012;4.736;2023-06-14T10:56:49;5.05;;;2.90;;
78489;SDS011;67776;52.012;4.736;2023-06-14T10:59:17;6.07;;;3.00;;
78489;SDS011;67776;52.012;4.736;2023-06-14T11:04:22;4.77;;;2.87;;
78489;SDS011;67776;52.012;4.736;2023-06-14T11:07:07;5.55;;;3.10;;
78489;SDS011;67776;52.012;4.736;2023-06-14T11:12:12;5.07;;;2.80;;
78489;SDS011;67776;52.012;4.736;2023-06-14T11:14:40;6.45;;;2.70;;
78489;SDS011;67776;52.012;4.736;2023-06-14T11:17:05;5.77;;;3.13;;
78489;SDS011;67776;52.012;4.736;2023-06-14T11:19:30;4.70;;;2.70;;
78489;SDS011;67776;52.012;4.736;2023-06-14T11:21:56;4.80;;;2.83;;
78489;SDS011;67776;52.012;4.736;2023-06-14T11:24:22;6.37;;;3.10;;
78489;SDS011;67776;52.012;4.736;2023-06-14T11:26:47;5.73;;;2.70;;
78489;SDS011;67776;52.012;4.736;2023-06-14T11:29:14;5.75;;;2.72;;
78489;SDS011;67776;52.012;4.736;2023-06-14T11:31:44;4.70;;;3.10;;
78489;SDS011;67776;52.012;4.736;2023-06-14T11:34:13;5.28;;;2.97;;
78489;SDS011;67776;52.012;4.736;2023-06-14T11:36:38;5.80;;;3.20;;
78489;SDS011;67776;52.012;4.736;2023-06-14T11:39:07;5.83;;;2.97;;
78489;SDS011;67776;52.012;4.736;2023-06-14T11:41:37;4.80;;;2.90;;
78489;SDS011;67776;52.012;4.736;2023-06-14T11:44:07;5.40;;;3.00;;
78489;SDS011;67776;52.012;4.736;2023-06-14T11:46:33;5.93;;;2.95;;
78489;SDS011;67776;52.012;4.736;2023-06-14T11:48:59;5.10;;;3.10;;
78489;SDS011;67776;52.012;4.736;2023-06-14T11:51:27;5.13;;;3.20;;
78489;SDS011;67776;52.012;4.736;2023-06-14T11:53:53;7.13;;;3.20;;
78489;SDS011;67776;52.012;4.736;2023-06-14T11:56:19;5.95;;;3.50;;
78489;SDS011;67776;52.012;4.736;2023-06-14T11:58:44;5.43;;;3.30;;
78489;SDS011;67776;52.012;4.736;2023-06-14T12:01:14;5.77;;;3.00;;
78489;SDS011;67776;52.012;4.736;2023-06-14T12:03:46;7.70;;;3.30;;
78489;SDS011;67776;52.012;4.736;2023-06-14T12:06:13;4.97;;;3.30;;
78489;SDS011;67776;52.012;4.736;2023-06-14T12:08:38;5.00;;;3.30;;
78489;SDS011;67776;52.012;4.736;2023-06-14T12:11:05;7.97;;;3.20;;
78489;SDS011;67776;52.012;4.736;2023-06-14T12:13:33;5.30;;;3.20;;
78489;SDS011;67776;52.012;4.736;2023-06-14T12:15:59;5.30;;;3.25;;
78489;SDS011;67776;52.012;4.736;2023-06-14T12:18:32;6.05;;;3.33;;
78489;SDS011;67776;52.012;4.736;2023-06-14T12:21:04;5.30;;;3.42;;
78489;SDS011;67776;52.012;4.736;2023-06-14T12:26:07;5.97;;;3.47;;
78489;SDS011;67776;52.012;4.736;2023-06-14T12:28:32;5.60;;;3.50;;
78489;SDS011;67776;52.012;4.736;2023-06-14T12:30:58;5.73;;;3.60;;
78489;SDS011;67776;52.012;4.736;2023-06-14T12:33:24;6.30;;;3.33;;
78489;SDS011;67776;52.012;4.736;2023-06-14T12:35:50;5.25;;;3.30;;
78489;SDS011;67776;52.012;4.736;2023-06-14T12:38:15;6.82;;;3.60;;
78489;SDS011;67776;52.012;4.736;2023-06-14T12:40:41;5.43;;;3.70;;
78489;SDS011;67776;52.012;4.736;2023-06-14T12:43:07;6.35;;;3.40;;
78489;SDS011;67776;52.012;4.736;2023-06-14T12:45:32;7.57;;;3.27;;
78489;SDS011;67776;52.012;4.736;2023-06-14T12:47:58;5.80;;;3.50;;
78489;SDS011;67776;52.012;4.736;2023-06-14T12:50:23;7.00;;;3.70;;
78489;SDS011;67776;52.012;4.736;2023-06-14T12:52:48;5.37;;;3.40;;
78489;SDS011;67776;52.012;4.736;2023-06-14T12:55:14;7.07;;;3.60;;
78489;SDS011;67776;52.012;4.736;2023-06-14T12:57:39;6.53;;;4.00;;
78489;SDS011;67776;52.012;4.736;2023-06-14T13:00:05;6.70;;;3.30;;
78489;SDS011;67776;52.012;4.736;2023-06-14T13:02:32;5.00;;;3.20;;
78489;SDS011;67776;52.012;4.736;2023-06-14T13:04:58;5.55;;;3.40;;
78489;SDS011;67776;52.012;4.736;2023-06-14T13:07:25;6.63;;;3.40;;
78489;SDS011;67776;52.012;4.736;2023-06-14T13:09:50;5.78;;;3.60;;
78489;SDS011;67776;52.012;4.736;2023-06-14T13:12:16;5.00;;;3.70;;
78489;SDS011;67776;52.012;4.736;2023-06-14T13:14:41;7.93;;;3.60;;
78489;SDS011;67776;52.012;4.736;2023-06-14T13:17:10;5.83;;;3.53;;
78489;SDS011;67776;52.012;4.736;2023-06-14T13:19:35;6.60;;;3.60;;
78489;SDS011;67776;52.012;4.736;2023-06-14T13:22:01;5.93;;;3.53;;
78489;SDS011;67776;52.012;4.736;2023-06-14T13:24:26;6.30;;;3.57;;
78489;SDS011;67776;52.012;4.736;2023-06-14T13:26:51;5.85;;;3.50;;
78489;SDS011;67776;52.012;4.736;2023-06-14T13:29:17;6.07;;;3.37;;
78489;SDS011;67776;52.012;4.736;2023-06-14T13:31:42;6.80;;;3.50;;
78489;SDS011;67776;52.012;4.736;2023-06-14T13:34:07;6.93;;;3.87;;
78489;SDS011;67776;52.012;4.736;2023-06-14T13:36:33;6.73;;;3.63;;
78489;SDS011;67776;52.012;4.736;2023-06-14T13:38:58;7.83;;;3.50;;
78489;SDS011;67776;52.012;4.736;2023-06-14T13:41:25;7.07;;;3.60;;
78489;SDS011;67776;52.012;4.736;2023-06-14T13:43:56;5.53;;;3.50;;
78489;SDS011;67776;52.012;4.736;2023-06-14T13:46:22;5.57;;;3.60;;
78489;SDS011;67776;52.012;4.736;2023-06-14T13:48:47;5.93;;;3.63;;
78489;SDS011;67776;52.012;4.736;2023-06-14T13:51:12;6.57;;;3.90;;
78489;SDS011;67776;52.012;4.736;2023-06-14T13:53:38;5.20;;;3.50;;
78489;SDS011;67776;52.012;4.736;2023-06-14T13:56:03;6.30;;;3.40;;
78489;SDS011;67776;52.012;4.736;2023-06-14T13:58:29;5.97;;;3.57;;
78489;SDS011;67776;52.012;4.736;2023-06-14T14:00:54;5.13;;;3.83;;
78489;SDS011;67776;52.012;4.736;2023-06-14T14:03:19;7.97;;;3.70;;
78489;SDS011;67776;52.012;4.736;2023-06-14T14:05:45;6.60;;;3.40;;
78489;SDS011;67776;52.012;4.736;2023-06-14T14:08:10;5.68;;;3.72;;
78489;SDS011;67776;52.012;4.736;2023-06-14T14:10:36;7.10;;;3.90;;
78489;SDS011;67776;52.012;4.736;2023-06-14T14:13:01;6.10;;;3.87;;
78489;SDS011;67776;52.012;4.736;2023-06-14T14:15:27;6.33;;;3.57;;
78489;SDS011;67776;52.012;4.736;2023-06-14T14:17:53;5.95;;;3.40;;
78489;SDS011;67776;52.012;4.736;2023-06-14T14:20:19;5.88;;;3.35;;
78489;SDS011;67776;52.012;4.736;2023-06-14T14:22:44;5.10;;;3.47;;
78489;SDS011;67776;52.012;4.736;2023-06-14T14:25:10;7.00;;;3.60;;
78489;SDS011;67776;52.012;4.736;2023-06-14T14:27:36;5.10;;;3.80;;
78489;SDS011;67776;52.012;4.736;2023-06-14T14:30:02;6.40;;;3.97;;
78489;SDS011;67776;52.012;4.736;2023-06-14T14:32:28;6.35;;;3.70;;
78489;SDS011;67776;52.012;4.736;2023-06-14T14:34:53;7.43;;;3.67;;
78489;SDS011;67776;52.012;4.736;2023-06-14T14:37:18;5.97;;;3.77;;
78489;SDS011;67776;52.012;4.736;2023-06-14T14:39:44;6.63;;;3.97;;
78489;SDS011;67776;52.012;4.736;2023-06-14T14:42:10;6.67;;;3.50;;
78489;SDS011;67776;52.012;4.736;2023-06-14T14:44:37;7.13;;;3.60;;
78489;SDS011;67776;52.012;4.736;2023-06-14T14:47:03;6.13;;;3.80;;
78489;SDS011;67776;52.012;4.736;2023-06-14T14:49:28;6.60;;;3.50;;
78489;SDS011;67776;52.012;4.736;2023-06-14T14:51:54;5.27;;;3.63;;
78489;SDS011;67776;52.012;4.736;2023-06-14T14:54:21;5.43;;;3.38;;
78489;SDS011;67776;52.012;4.736;2023-06-14T14:56:46;5.97;;;3.50;;
78489;SDS011;67776;52.012;4.736;2023-06-14T14:59:12;6.33;;;3.50;;
78489;SDS011;67776;52.012;4.736;2023-06-14T15:01:37;6.23;;;3.70;;
78489;SDS011;67776;52.012;4.736;2023-06-14T15:04:02;6.83;;;3.23;;
78489;SDS011;67776;52.012;4.736;2023-06-14T15:06:28;6.28;;;3.08;;
78489;SDS011;67776;52.012;4.736;2023-06-14T15:08:53;5.10;;;3.40;;